Time;durP1;ratioP1;P1;durP2;ratioP2;P2;SDS_P1;SDS_P2;PMS_P1;PMS_P2;Temp;Humidity;BMP_temperature;BMP_pressure;BME280_temperature;BME280_humidity;BME280_pressure;Samples;Min_cycle;Max_cycle;Signal;HPM_P1;HPM_P2
2021/06/25 00:01:16;;;;;;;11.48;8.25;;;;;;;17.80;52.26;101892.47;5040427;22;117656;-74
2021/06/25 00:03:43;;;;;;;12.30;8.80;;;;;;;17.73;52.22;101886.63;5029475;28;124040;-75
2021/06/25 00:06:10;;;;;;;12.43;9.05;;;;;;;17.66;52.27;101891.47;5029407;28;124962;-74
2021/06/25 00:08:37;;;;;;;13.98;9.40;;;;;;;17.60;52.36;101881.09;5028902;28;119699;-75
2021/06/25 00:11:04;;;;;;;14.02;9.52;;;;;;;17.54;52.34;101884.16;5022327;28;118518;-75
2021/06/25 00:13:31;;;;;;;11.68;8.68;;;;;;;17.49;52.44;101878.19;5026511;28;125426;-75
2021/06/25 00:15:59;;;;;;;14.60;10.07;;;;;;;17.44;52.63;101885.63;5020661;28;122987;-75
2021/06/25 00:18:26;;;;;;;12.88;9.02;;;;;;;17.40;52.67;101878.72;5026500;28;118818;-75
2021/06/25 00:20:53;;;;;;;12.27;9.13;;;;;;;17.36;52.73;101877.16;5021436;28;119592;-74
2021/06/25 00:23:20;;;;;;;16.50;10.25;;;;;;;17.30;52.79;101868.53;5021932;28;124241;-75
2021/06/25 00:25:47;;;;;;;13.02;9.43;;;;;;;17.26;52.71;101872.34;5023785;28;124020;-75
2021/06/25 00:28:14;;;;;;;15.63;10.57;;;;;;;17.22;52.83;101869.94;5023602;28;119603;-74
2021/06/25 00:30:42;;;;;;;12.85;9.20;;;;;;;17.16;52.82;101871.13;5024473;28;119054;-75
2021/06/25 00:33:11;;;;;;;15.50;10.15;;;;;;;17.10;53.00;101872.34;5022647;28;124495;-74
2021/06/25 00:35:38;;;;;;;14.32;9.85;;;;;;;17.06;52.95;101875.25;5024113;28;124424;-75
2021/06/25 00:38:06;;;;;;;14.00;9.90;;;;;;;17.01;53.06;101871.97;5019328;28;120560;-74
2021/06/25 00:40:34;;;;;;;14.35;10.23;;;;;;;16.97;53.06;101876.66;5020090;28;120052;-74
2021/06/25 00:43:02;;;;;;;13.88;8.98;;;;;;;16.90;52.91;101876.13;5005695;28;123132;-74
2021/06/25 00:45:30;;;;;;;14.60;9.52;;;;;;;16.84;53.03;101864.88;5021828;28;123921;-74
2021/06/25 00:47:58;;;;;;;15.07;10.13;;;;;;;16.78;53.10;101865.19;5014277;28;119625;-74
2021/06/25 00:50:32;;;;;;;15.02;10.95;;;;;;;16.71;53.00;101870.03;5023145;28;119379;-74
2021/06/25 00:53:00;;;;;;;15.00;10.02;;;;;;;16.65;53.25;101865.00;5023711;28;124190;-74
2021/06/25 00:55:41;;;;;;;14.68;9.77;;;;;;;16.59;53.28;101865.34;5021453;28;122664;-74
2021/06/25 00:58:13;;;;;;;14.88;10.02;;;;;;;16.52;53.56;101865.66;5021479;28;120150;-74
2021/06/25 01:00:41;;;;;;;14.80;10.25;;;;;;;16.46;53.38;101860.66;5016628;28;120105;-74
2021/06/25 01:03:09;;;;;;;16.23;10.73;;;;;;;16.41;53.50;101857.34;5020897;28;124223;-74
2021/06/25 01:05:37;;;;;;;15.55;10.27;;;;;;;16.37;53.52;101866.50;5020159;28;123959;-74
2021/06/25 01:08:06;;;;;;;14.93;10.18;;;;;;;16.32;53.70;101857.84;5020682;28;119054;-74
2021/06/25 01:10:39;;;;;;;15.40;10.23;;;;;;;16.27;53.78;101854.53;5024364;28;119484;-74
2021/06/25 01:13:08;;;;;;;16.38;10.57;;;;;;;16.23;53.74;101852.97;5021200;28;123078;-74
2021/06/25 01:15:36;;;;;;;18.13;11.32;;;;;;;16.18;53.86;101849.69;5022716;28;124263;-74
2021/06/25 01:18:04;;;;;;;16.73;10.90;;;;;;;16.13;53.74;101848.13;5022868;28;119483;-73
2021/06/25 01:20:33;;;;;;;16.35;10.02;;;;;;;16.09;53.86;101840.34;5015999;28;119245;-73
2021/06/25 01:23:01;;;;;;;16.88;11.02;;;;;;;16.04;53.84;101837.91;5020231;28;125386;-73
2021/06/25 01:25:34;;;;;;;15.95;10.40;;;;;;;16.01;53.83;101838.09;5025938;28;123517;-74
2021/06/25 01:28:07;;;;;;;16.50;11.07;;;;;;;15.94;53.77;101837.53;5013653;28;119587;-74
2021/06/25 01:30:37;;;;;;;17.42;10.85;;;;;;;15.91;53.84;101844.81;5020227;28;120394;-74
2021/06/25 01:33:11;;;;;;;16.10;10.85;;;;;;;15.85;54.01;101842.47;5014986;28;124057;-73
2021/06/25 01:35:40;;;;;;;15.57;10.48;;;;;;;15.80;53.71;101841.84;5007742;28;122264;-73
2021/06/25 01:38:09;;;;;;;13.48;8.70;;;;;;;15.73;53.62;101839.50;5022532;28;96754;-74
2021/06/25 01:40:38;;;;;;;14.48;9.57;;;;;;;15.67;53.79;101834.44;5017798;28;118599;-73
2021/06/25 01:43:07;;;;;;;16.83;9.68;;;;;;;15.60;53.53;101843.69;5022773;28;124714;-73
2021/06/25 01:45:36;;;;;;;14.73;9.88;;;;;;;15.53;53.56;101842.28;5013107;28;122813;-74
2021/06/25 01:48:04;;;;;;;16.15;10.45;;;;;;;15.46;53.64;101851.50;5022291;28;119137;-74
2021/06/25 01:50:36;;;;;;;16.33;10.18;;;;;;;15.38;53.81;101855.41;5015925;27;119403;-74
2021/06/25 01:53:08;;;;;;;15.35;9.65;;;;;;;15.31;53.81;101858.47;5015059;28;124780;-74
2021/06/25 01:55:40;;;;;;;16.77;10.23;;;;;;;15.23;53.66;101845.50;5016323;28;123468;-74
2021/06/25 01:58:12;;;;;;;14.50;9.70;;;;;;;15.16;53.76;101844.06;5017240;28;118642;-74
2021/06/25 02:00:43;;;;;;;14.75;9.98;;;;;;;15.09;53.86;101845.31;5020103;28;118326;-74
2021/06/25 02:03:10;;;;;;;16.30;9.75;;;;;;;15.03;53.82;101842.91;5016236;28;124111;-74
2021/06/25 02:05:38;;;;;;;14.35;9.40;;;;;;;14.95;53.83;101841.47;5020734;28;124259;-74
2021/06/25 02:08:05;;;;;;;15.90;9.98;;;;;;;14.90;53.82;101843.53;5023269;28;119360;-74
2021/06/25 02:10:32;;;;;;;15.45;10.10;;;;;;;14.84;53.92;101838.44;5020973;28;118577;-73
2021/06/25 02:13:01;;;;;;;15.85;10.20;;;;;;;14.79;53.84;101845.81;5020985;28;124881;-74
2021/06/25 02:15:28;;;;;;;15.88;9.43;;;;;;;14.75;53.95;101841.56;5023544;28;123238;-74
2021/06/25 02:17:55;;;;;;;17.38;10.73;;;;;;;14.70;54.05;101840.91;5020252;28;120044;-74
2021/06/25 02:20:22;;;;;;;14.57;9.65;;;;;;;14.65;54.09;101833.13;5006059;28;119513;-74
2021/06/25 02:22:49;;;;;;;18.20;10.52;;;;;;;14.60;54.10;101836.00;5022617;28;123908;-73
2021/06/25 02:25:16;;;;;;;18.25;11.00;;;;;;;14.56;54.15;101830.84;5021872;28;123719;-74
2021/06/25 02:27:43;;;;;;;17.48;11.27;;;;;;;14.52;54.25;101830.13;5017102;28;118551;-73
2021/06/25 02:30:16;;;;;;;17.40;10.27;;;;;;;14.48;54.35;101825.84;5019095;28;118412;-74
2021/06/25 02:32:45;;;;;;;17.85;11.13;;;;;;;14.46;54.46;101829.53;5008714;28;123511;-73
2021/06/25 02:35:14;;;;;;;17.85;10.98;;;;;;;14.43;54.41;101819.00;5015249;28;123083;-73
2021/06/25 02:37:42;;;;;;;18.75;11.25;;;;;;;14.41;54.48;101813.78;5017022;28;119702;-73
2021/06/25 02:40:10;;;;;;;20.52;11.23;;;;;;;14.36;54.38;101810.44;5018277;27;119005;-73
2021/06/25 02:42:37;;;;;;;17.60;10.52;;;;;;;14.33;54.43;101810.56;5021395;28;123927;-73
2021/06/25 02:45:06;;;;;;;17.05;11.23;;;;;;;14.30;54.56;101810.72;5015253;28;124186;-73
2021/06/25 02:47:34;;;;;;;18.10;10.38;;;;;;;14.27;54.50;101808.19;5019767;28;119514;-73
2021/06/25 02:50:03;;;;;;;16.23;10.00;;;;;;;14.25;54.55;101807.41;5000368;28;118514;-74
2021/06/25 02:52:30;;;;;;;15.98;9.48;;;;;;;14.21;54.28;101796.00;5021620;28;123642;-73
2021/06/25 02:54:57;;;;;;;17.50;10.82;;;;;;;14.16;54.52;101804.19;5023324;28;123776;-73
2021/06/25 02:57:24;;;;;;;17.10;10.75;;;;;;;14.11;54.51;101811.53;5003409;28;118468;-73
2021/06/25 02:59:51;;;;;;;17.40;10.70;;;;;;;14.08;54.57;101817.00;5024000;28;119745;-73
2021/06/25 03:02:18;;;;;;;20.08;11.38;;;;;;;14.05;54.79;101809.13;5025945;27;123881;-74
2021/06/25 03:04:45;;;;;;;21.48;11.52;;;;;;;14.03;54.69;101808.34;5021955;28;123938;-73
2021/06/25 03:07:12;;;;;;;19.35;11.15;;;;;;;13.98;54.79;101805.03;5021738;28;120524;-74
2021/06/25 03:09:39;;;;;;;20.05;11.25;;;;;;;13.96;54.80;101801.56;5025735;28;119356;-75
2021/06/25 03:12:07;;;;;;;20.75;12.25;;;;;;;13.95;54.84;101806.00;5020058;28;124040;-74
2021/06/25 03:14:34;;;;;;;22.77;12.07;;;;;;;13.94;54.97;101803.44;5024212;28;122743;-74
2021/06/25 03:17:01;;;;;;;18.48;10.60;;;;;;;13.93;55.14;101801.69;5022512;28;119270;-74
2021/06/25 03:19:28;;;;;;;16.33;9.65;;;;;;;13.91;55.05;101799.09;5026944;28;119664;-73
2021/06/25 03:21:56;;;;;;;15.75;9.60;;;;;;;13.89;54.85;101805.44;5008615;28;123018;-74
2021/06/25 03:24:23;;;;;;;16.90;9.68;;;;;;;13.86;54.95;101794.91;5018696;28;123701;-73
2021/06/25 03:26:50;;;;;;;19.08;10.57;;;;;;;13.83;54.98;101791.44;5021063;28;119842;-74
2021/06/25 03:29:17;;;;;;;18.35;10.52;;;;;;;13.81;55.04;101785.31;5024189;28;119435;-74
2021/06/25 03:31:44;;;;;;;19.95;11.63;;;;;;;13.79;55.15;101796.97;5021107;28;124370;-74
2021/06/25 03:34:11;;;;;;;20.42;11.57;;;;;;;13.76;55.29;101787.31;5026488;28;124349;-73
2021/06/25 03:36:38;;;;;;;19.95;12.05;;;;;;;13.75;55.45;101793.59;5028900;28;119474;-74
2021/06/25 03:39:06;;;;;;;19.95;11.38;;;;;;;13.76;55.32;101789.97;5022294;28;118848;-73
2021/06/25 03:41:33;;;;;;;19.95;11.85;;;;;;;13.75;55.44;101782.94;5023517;28;124013;-74
2021/06/25 03:44:00;;;;;;;22.45;12.45;;;;;;;13.77;55.48;101780.22;5023522;28;124271;-73
2021/06/25 03:46:27;;;;;;;21.05;11.82;;;;;;;13.77;55.75;101778.41;5027768;28;118366;-74
2021/06/25 03:48:54;;;;;;;21.85;12.63;;;;;;;13.80;55.80;101783.56;5028414;28;119319;-73
2021/06/25 03:51:21;;;;;;;22.25;11.43;;;;;;;13.83;55.99;101785.25;5022411;28;124090;-74
2021/06/25 03:53:48;;;;;;;19.67;11.40;;;;;;;13.87;55.91;101783.34;5023630;28;124231;-74
2021/06/25 03:56:15;;;;;;;18.63;11.30;;;;;;;13.90;55.95;101785.84;5026436;28;119455;-74
2021/06/25 03:58:45;;;;;;;19.40;11.93;;;;;;;13.93;56.14;101791.03;5027026;28;120187;-73
2021/06/25 04:01:16;;;;;;;20.55;12.15;;;;;;;13.96;56.15;101774.94;5023011;28;124310;-74
2021/06/25 04:03:43;;;;;;;19.70;11.52;;;;;;;14.01;56.32;101773.81;5023281;28;123484;-73
2021/06/25 04:06:11;;;;;;;19.42;11.15;;;;;;;14.07;56.25;101774.44;5022923;28;119477;-73
2021/06/25 04:08:38;;;;;;;21.92;11.57;;;;;;;14.13;56.46;101767.06;5020125;28;118843;-74
2021/06/25 04:11:06;;;;;;;20.33;11.40;;;;;;;14.20;56.58;101768.50;5019056;28;124485;-74
2021/06/25 04:13:35;;;;;;;19.58;11.50;;;;;;;14.27;56.74;101768.22;5022340;27;123905;-74
2021/06/25 04:16:02;;;;;;;20.63;11.55;;;;;;;14.35;56.70;101766.06;5024363;28;119606;-74
2021/06/25 04:18:29;;;;;;;18.65;11.32;;;;;;;14.44;56.89;101760.31;5017259;28;118993;-74
2021/06/25 04:20:57;;;;;;;20.65;11.25;;;;;;;14.53;57.08;101759.88;5019434;28;123834;-74
2021/06/25 04:23:25;;;;;;;19.75;11.75;;;;;;;14.62;57.14;101766.63;5021403;28;123560;-73
2021/06/25 04:25:52;;;;;;;20.02;12.48;;;;;;;14.73;57.05;101771.41;5008992;28;118682;-73
2021/06/25 04:28:20;;;;;;;19.52;12.13;;;;;;;14.81;57.02;101774.59;5025547;28;119576;-73
2021/06/25 04:30:48;;;;;;;21.10;12.25;;;;;;;14.91;57.27;101770.53;5023078;28;124714;-74
2021/06/25 04:33:15;;;;;;;20.40;12.23;;;;;;;15.00;57.26;101774.59;5021178;28;123922;-73
2021/06/25 04:35:44;;;;;;;19.13;11.35;;;;;;;15.10;57.04;101770.50;5026847;28;120064;-74
2021/06/25 04:38:11;;;;;;;20.52;12.13;;;;;;;15.18;57.14;101767.47;5029565;28;118633;-73
2021/06/25 04:40:40;;;;;;;18.63;11.57;;;;;;;15.27;57.20;101767.00;5023224;28;124246;-73
2021/06/25 04:43:09;;;;;;;20.02;12.15;;;;;;;15.34;57.21;101768.44;5026296;28;123022;-73
2021/06/25 04:45:38;;;;;;;20.02;11.32;;;;;;;15.44;57.12;101767.97;5023040;28;120291;-73
2021/06/25 04:48:08;;;;;;;20.05;11.60;;;;;;;15.52;57.19;101766.66;5026152;28;119910;-73
2021/06/25 04:50:36;;;;;;;20.92;12.30;;;;;;;15.61;57.19;101765.28;5021759;28;124095;-73
2021/06/25 04:53:03;;;;;;;21.45;13.18;;;;;;;15.69;57.15;101763.13;5024430;28;123914;-73
2021/06/25 04:55:40;;;;;;;21.88;12.65;;;;;;;15.76;57.08;101756.53;5018408;28;118761;-74
2021/06/25 04:58:09;;;;;;;22.55;12.63;;;;;;;15.84;56.99;101749.91;5018356;28;119473;-73
2021/06/25 05:00:37;;;;;;;23.05;13.73;;;;;;;15.90;57.13;101749.63;5017384;28;121970;-74
2021/06/25 05:03:06;;;;;;;18.92;11.98;;;;;;;15.96;57.02;101749.28;5023445;28;123194;-73
2021/06/25 05:05:34;;;;;;;20.80;12.65;;;;;;;16.03;57.01;101750.69;5018886;28;119793;-73
2021/06/25 05:08:02;;;;;;;20.70;11.93;;;;;;;16.11;57.09;101747.59;5022887;28;119405;-73
2021/06/25 05:10:29;;;;;;;19.50;11.77;;;;;;;16.18;57.12;101748.13;5019654;28;124850;-73
2021/06/25 05:12:58;;;;;;;20.88;11.98;;;;;;;16.26;57.06;101741.41;5002219;28;123164;-74
2021/06/25 05:15:25;;;;;;;19.50;11.93;;;;;;;16.34;56.96;101746.34;5018757;28;120079;-74
2021/06/25 05:17:52;;;;;;;19.88;12.63;;;;;;;16.40;56.92;101737.97;5016476;28;118973;-73
2021/06/25 05:20:39;;;;;;;21.02;12.73;;;;;;;16.47;56.61;101739.38;5016305;27;123664;-73
2021/06/25 05:23:06;;;;;;;22.77;12.48;;;;;;;16.54;56.82;101743.44;5015205;27;123889;-73
2021/06/25 05:25:33;;;;;;;21.80;11.95;;;;;;;16.61;56.66;101743.06;5024293;28;119610;-75
2021/06/25 05:28:00;;;;;;;20.70;12.70;;;;;;;16.67;56.60;101740.03;5023219;28;118856;-74
2021/06/25 05:30:27;;;;;;;22.13;13.35;;;;;;;16.71;56.58;101741.63;5022215;28;124081;-74
2021/06/25 05:32:56;;;;;;;21.55;12.73;;;;;;;16.76;56.87;101744.88;5025744;28;123951;-74
2021/06/25 05:35:24;;;;;;;22.83;12.93;;;;;;;16.83;56.75;101740.94;5027415;28;120473;-73
2021/06/25 05:37:53;;;;;;;22.05;13.18;;;;;;;16.91;56.86;101733.38;5026694;28;120353;-74
2021/06/25 05:40:20;;;;;;;20.60;12.52;;;;;;;17.03;56.80;101741.63;5023796;28;122925;-74
2021/06/25 05:42:47;;;;;;;20.77;12.52;;;;;;;17.10;56.96;101743.88;5023093;28;124760;-74
2021/06/25 05:45:14;;;;;;;21.30;13.30;;;;;;;17.20;56.90;101738.81;5021693;28;118224;-74
2021/06/25 05:47:42;;;;;;;23.77;13.13;;;;;;;17.29;56.70;101743.66;5025093;28;118323;-74
2021/06/25 05:50:11;;;;;;;21.92;13.00;;;;;;;17.37;56.68;101740.50;5024681;28;125244;-73
2021/06/25 05:52:38;;;;;;;23.73;14.48;;;;;;;17.45;56.56;101738.22;5024729;28;124568;-74
2021/06/25 05:55:05;;;;;;;29.02;15.23;;;;;;;17.55;56.54;101733.19;5034708;28;119531;-74
2021/06/25 05:57:33;;;;;;;27.15;16.00;;;;;;;17.65;56.67;101734.38;5033026;28;119026;-74
2021/06/25 06:00:00;;;;;;;28.05;15.73;;;;;;;17.75;56.48;101733.81;5033451;28;124041;-74
2021/06/25 06:02:27;;;;;;;29.30;16.20;;;;;;;17.85;56.41;101729.63;5030124;28;123510;-74
2021/06/25 06:04:54;;;;;;;27.67;15.98;;;;;;;17.93;56.51;101730.00;5033329;28;118568;-74
2021/06/25 06:07:21;;;;;;;30.60;16.05;;;;;;;18.02;56.47;101732.13;5025528;28;118265;-74
2021/06/25 06:09:48;;;;;;;28.67;16.08;;;;;;;18.13;56.47;101727.91;5021041;28;124635;-74
2021/06/25 06:12:15;;;;;;;28.20;16.52;;;;;;;18.22;56.54;101721.97;5024259;28;122133;-74
2021/06/25 06:14:42;;;;;;;31.58;17.15;;;;;;;18.33;56.38;101724.84;5021133;28;119338;-74
2021/06/25 06:17:09;;;;;;;27.85;17.08;;;;;;;18.41;56.03;101727.88;5021288;28;119446;-75
2021/06/25 06:19:41;;;;;;;27.35;16.75;;;;;;;18.47;55.95;101716.75;5003205;28;123159;-74
2021/06/25 06:33:16;;;;;;;27.60;17.20;;;;;;;18.81;55.43;101725.31;5026449;28;124650;-74
2021/06/25 06:35:43;;;;;;;28.05;16.25;;;;;;;18.90;55.53;101723.00;5006115;28;118623;-74
2021/06/25 06:38:11;;;;;;;26.30;16.13;;;;;;;18.97;55.44;101718.97;5021914;28;119705;-74
2021/06/25 06:40:38;;;;;;;24.98;16.02;;;;;;;19.05;55.39;101716.63;5018895;28;122358;-75
2021/06/25 06:43:05;;;;;;;25.92;15.88;;;;;;;19.12;55.27;101715.25;5020465;28;124156;-74
2021/06/25 06:45:32;;;;;;;26.40;16.55;;;;;;;19.22;54.96;101719.00;5020866;28;119660;-74
2021/06/25 06:47:59;;;;;;;25.63;16.00;;;;;;;19.31;54.91;101722.03;5014799;28;118918;-74
2021/06/25 06:50:26;;;;;;;25.33;15.75;;;;;;;19.38;54.63;101728.72;5019742;28;124170;-75
2021/06/25 06:52:54;;;;;;;24.70;14.85;;;;;;;19.44;54.43;101728.31;5019525;28;124664;-75
2021/06/25 06:55:22;;;;;;;26.35;15.90;;;;;;;19.48;54.40;101724.44;5013496;28;117783;-74
2021/06/25 06:57:49;;;;;;;26.65;15.95;;;;;;;19.53;54.35;101727.66;5018440;28;118746;-74
2021/06/25 07:00:17;;;;;;;24.38;15.85;;;;;;;19.61;54.33;101725.31;5018560;28;124753;-74
2021/06/25 07:02:46;;;;;;;26.90;16.20;;;;;;;19.68;54.17;101719.50;5019230;28;126143;-74
2021/06/25 07:05:15;;;;;;;25.70;15.73;;;;;;;19.74;54.08;101724.47;5016276;28;119511;-75
2021/06/25 07:07:43;;;;;;;25.55;15.07;;;;;;;19.80;53.94;101724.06;5022353;28;119218;-75
2021/06/25 07:10:11;;;;;;;24.80;15.43;;;;;;;19.86;53.80;101734.41;5026484;28;123952;-74
2021/06/25 07:12:39;;;;;;;29.23;16.17;;;;;;;19.93;53.72;101735.69;5020392;28;125079;-75
2021/06/25 07:15:07;;;;;;;25.45;16.08;;;;;;;19.99;53.65;101735.25;5020840;28;120072;-74
2021/06/25 07:17:35;;;;;;;27.45;15.60;;;;;;;20.06;53.61;101735.69;5019808;28;119986;-75
2021/06/25 07:20:05;;;;;;;22.73;14.55;;;;;;;20.11;53.51;101732.66;5022557;28;123975;-76
2021/06/25 07:22:33;;;;;;;24.23;14.68;;;;;;;20.15;53.33;101734.16;5023131;28;123830;-75
2021/06/25 07:25:00;;;;;;;24.58;15.23;;;;;;;20.19;53.39;101735.66;5013766;28;119100;-74
2021/06/25 07:27:27;;;;;;;25.75;15.38;;;;;;;20.22;53.24;101740.81;5018998;28;119064;-74
2021/06/25 07:29:54;;;;;;;27.65;15.88;;;;;;;20.24;53.22;101749.63;5017069;28;123751;-74
2021/06/25 07:32:22;;;;;;;25.17;15.02;;;;;;;20.22;52.85;101746.19;5021379;28;124158;-74
2021/06/25 07:34:49;;;;;;;24.02;15.80;;;;;;;20.21;52.96;101749.84;5022774;28;119348;-74
2021/06/25 07:37:19;;;;;;;27.02;16.50;;;;;;;20.18;52.76;101750.94;5024948;28;118328;-74
2021/06/25 07:39:46;;;;;;;23.73;15.45;;;;;;;20.17;52.68;101753.72;5007336;28;123167;-76
2021/06/25 07:42:13;;;;;;;28.67;16.63;;;;;;;20.13;52.74;101749.53;5010040;28;123250;-75
2021/06/25 07:44:41;;;;;;;25.27;15.82;;;;;;;20.10;52.75;101747.94;5020108;28;119713;-74
2021/06/25 07:47:08;;;;;;;27.38;16.05;;;;;;;20.09;52.79;101745.34;5013236;28;118851;-74
2021/06/25 07:49:35;;;;;;;25.70;16.23;;;;;;;20.07;52.74;101752.69;5018059;28;124159;-76
2021/06/25 07:52:02;;;;;;;25.90;14.90;;;;;;;20.08;53.00;101743.63;5022903;28;124590;-74
2021/06/25 07:54:30;;;;;;;25.48;15.70;;;;;;;20.07;52.81;101741.91;5030083;28;119722;-74
2021/06/25 07:56:57;;;;;;;26.35;15.75;;;;;;;20.06;52.89;101745.56;5021049;28;118666;-74
2021/06/25 07:59:24;;;;;;;29.77;15.77;;;;;;;20.07;52.98;101753.53;5029900;28;124698;-76
2021/06/25 08:01:51;;;;;;;28.40;16.95;;;;;;;20.08;53.06;101746.31;5029137;28;123875;-75
2021/06/25 08:04:19;;;;;;;26.52;16.58;;;;;;;20.07;53.11;101750.00;5030154;28;120901;-74
2021/06/25 08:06:46;;;;;;;29.17;15.90;;;;;;;20.07;53.10;101741.91;5029210;28;119646;-74
2021/06/25 08:09:13;;;;;;;27.45;15.93;;;;;;;20.06;52.91;101740.19;5030332;28;124851;-74
2021/06/25 08:11:40;;;;;;;25.33;15.80;;;;;;;20.08;53.07;101743.63;5024721;28;124321;-75
2021/06/25 08:14:07;;;;;;;27.27;16.75;;;;;;;20.08;52.80;101732.88;5001898;28;118794;-76
2021/06/25 08:16:34;;;;;;;25.70;15.85;;;;;;;20.08;52.92;101743.63;5020459;28;119270;-74
2021/06/25 08:19:02;;;;;;;27.45;16.23;;;;;;;20.10;53.17;101747.06;5019319;28;124188;-74
2021/06/25 08:21:30;;;;;;;29.40;16.58;;;;;;;20.11;53.03;101743.41;5020765;28;123853;-74
2021/06/25 08:23:58;;;;;;;25.85;16.35;;;;;;;20.12;53.05;101745.16;5020142;28;118213;-76
2021/06/25 08:26:25;;;;;;;24.98;15.95;;;;;;;20.14;52.87;101737.81;5012601;28;119275;-74
2021/06/25 08:28:53;;;;;;;25.33;16.38;;;;;;;20.17;53.10;101737.59;5017960;28;123861;-75
2021/06/25 08:31:21;;;;;;;26.58;16.00;;;;;;;20.19;52.99;101730.28;5019879;28;124686;-74
2021/06/25 08:33:49;;;;;;;25.15;15.88;;;;;;;20.23;53.22;101734.47;5004826;28;119576;-74
2021/06/25 08:36:16;;;;;;;25.35;15.35;;;;;;;20.28;53.00;101732.31;5026465;28;119180;-75
2021/06/25 08:38:43;;;;;;;26.48;15.57;;;;;;;20.30;53.02;101733.03;5027447;28;125099;-74
2021/06/25 08:41:10;;;;;;;24.70;15.25;;;;;;;20.34;53.07;101734.56;5029214;28;124451;-74
2021/06/25 08:43:37;;;;;;;24.58;15.20;;;;;;;20.38;52.92;101730.69;5053702;22;118849;-62
2021/06/25 08:46:05;;;;;;;24.23;15.88;;;;;;;20.43;53.11;101733.88;5025057;27;118831;-62
2021/06/25 08:48:36;;;;;;;24.45;14.65;;;;;;;20.50;52.84;101728.06;5027089;28;124452;-61
2021/06/25 08:51:06;;;;;;;23.30;14.48;;;;;;;20.55;52.73;101731.25;5027721;28;124464;-61
2021/06/25 08:53:33;;;;;;;23.73;14.52;;;;;;;20.62;52.68;101727.19;5027946;28;120315;-61
2021/06/25 08:56:01;;;;;;;23.40;14.57;;;;;;;20.67;52.74;101727.72;5028606;28;120678;-61
2021/06/25 08:58:28;;;;;;;23.30;13.90;;;;;;;20.73;52.80;101723.72;5010785;27;123716;-61
2021/06/25 09:00:56;;;;;;;20.42;13.50;;;;;;;20.80;52.77;101719.59;5012128;28;124197;-62
2021/06/25 09:03:26;;;;;;;21.35;13.50;;;;;;;20.87;52.47;101714.59;5027117;28;119390;-61
2021/06/25 09:06:07;;;;;;;21.38;13.77;;;;;;;20.93;52.21;101719.53;5026285;28;119477;-61
2021/06/25 09:08:34;;;;;;;21.33;13.13;;;;;;;20.98;52.06;101722.72;5029572;27;124805;-61
2021/06/25 09:11:16;;;;;;;20.52;13.93;;;;;;;21.02;51.81;101718.84;5027606;28;123878;-61
2021/06/25 09:13:43;;;;;;;20.55;12.70;;;;;;;21.06;51.94;101717.66;5013702;28;119142;-62
2021/06/25 09:16:21;;;;;;;18.58;12.02;;;;;;;21.11;51.58;101722.66;5026591;28;119127;-61
2021/06/25 09:18:59;;;;;;;19.00;12.30;;;;;;;21.16;51.52;101710.56;5020074;28;123952;-61
2021/06/25 09:21:28;;;;;;;19.50;13.00;;;;;;;21.19;51.39;101704.97;5030907;28;124226;-61
2021/06/25 09:23:55;;;;;;;18.35;12.95;;;;;;;21.26;51.32;101709.88;5018873;28;119533;-61
2021/06/25 09:26:31;;;;;;;20.83;13.38;;;;;;;21.30;51.13;101711.34;5028241;28;119133;-61
2021/06/25 09:29:13;;;;;;;19.23;12.85;;;;;;;21.34;50.90;101707.44;5028967;28;124115;-61
2021/06/25 09:31:40;;;;;;;16.88;11.90;;;;;;;21.40;50.90;101706.97;5030319;28;124237;-61
2021/06/25 09:34:10;;;;;;;22.10;13.52;;;;;;;21.46;51.06;101705.69;5028202;28;120063;-61
2021/06/25 09:36:39;;;;;;;17.60;12.02;;;;;;;21.52;50.88;101695.28;5013588;28;118469;-61
2021/06/25 09:39:13;;;;;;;20.98;13.07;;;;;;;21.57;50.43;101687.69;5027272;28;124106;-61
2021/06/25 09:41:44;;;;;;;17.98;11.85;;;;;;;21.63;50.23;101690.88;5029689;28;124265;-61
2021/06/25 09:44:18;;;;;;;17.77;11.65;;;;;;;21.69;50.17;101685.00;5015322;28;121124;-61
2021/06/25 09:46:49;;;;;;;16.85;11.57;;;;;;;21.78;49.97;101685.13;5016958;27;120533;-61
2021/06/25 09:49:25;;;;;;;16.98;11.25;;;;;;;21.89;49.82;101692.38;5005912;27;124047;-61
2021/06/25 09:51:57;;;;;;;16.23;11.30;;;;;;;21.99;49.50;101697.03;5009300;28;124330;-61
2021/06/25 09:54:27;;;;;;;17.15;11.30;;;;;;;22.08;49.42;101685.53;5025137;28;119818;-61
2021/06/25 09:57:12;;;;;;;15.43;11.00;;;;;;;22.18;49.23;101697.28;5030142;27;119301;-61
2021/06/25 10:02:17;;;;;;;16.00;11.20;;;;;;;22.47;49.38;101691.38;5018816;28;123951;-61
2021/06/25 10:04:46;;;;;;;19.00;10.88;;;;;;;22.63;49.20;101689.13;5023226;28;119288;-61
2021/06/25 10:07:13;;;;;;;17.67;10.85;;;;;;;22.80;49.47;101692.28;5024483;28;118155;-61
2021/06/25 10:09:42;;;;;;;16.65;10.80;;;;;;;22.97;49.14;101688.16;5022339;28;123936;-61
2021/06/25 10:12:15;;;;;;;15.25;10.35;;;;;;;23.11;48.50;101685.16;5021080;28;124116;-61
2021/06/25 10:14:43;;;;;;;16.02;10.75;;;;;;;23.24;47.82;101684.97;5024795;27;119496;-61
2021/06/25 10:17:13;;;;;;;17.10;10.27;;;;;;;23.34;47.65;101685.91;5024401;28;119119;-61
2021/06/25 10:19:45;;;;;;;15.07;10.63;;;;;;;23.42;47.33;101683.41;5024266;28;124123;-61
2021/06/25 10:22:16;;;;;;;13.43;10.20;;;;;;;23.51;47.38;101688.00;5035279;27;122707;-61
2021/06/25 10:24:48;;;;;;;16.50;10.65;;;;;;;23.62;47.09;101688.91;5027038;27;119338;-61
2021/06/25 10:27:21;;;;;;;16.35;10.57;;;;;;;23.71;47.01;101682.69;5026882;28;118876;-61
2021/06/25 10:29:50;;;;;;;14.52;9.80;;;;;;;23.82;46.64;101674.53;5025269;28;124184;-61
2021/06/25 10:32:18;;;;;;;14.48;10.18;;;;;;;23.94;46.81;101678.03;5027946;28;123744;-61
2021/06/25 10:34:46;;;;;;;14.48;9.85;;;;;;;24.07;46.94;101672.34;5023767;28;120181;-61
2021/06/25 10:37:21;;;;;;;13.77;9.93;;;;;;;24.20;46.46;101669.41;5014209;28;119073;-61
2021/06/25 10:39:49;;;;;;;12.75;9.68;;;;;;;24.29;46.07;101669.44;5018152;28;124102;-61
2021/06/25 10:42:17;;;;;;;12.93;9.43;;;;;;;24.33;45.87;101682.69;5015350;28;124531;-61
2021/06/25 10:44:54;;;;;;;12.65;8.90;;;;;;;24.38;45.79;101664.19;5026614;27;119439;-61
2021/06/25 10:47:23;;;;;;;13.40;9.02;;;;;;;24.50;46.12;101668.47;5020637;28;118793;-61
2021/06/25 10:50:02;;;;;;;13.40;8.38;;;;;;;24.67;45.43;101667.81;5022420;28;123670;-61
2021/06/25 10:52:31;;;;;;;13.52;9.18;;;;;;;24.82;45.63;101662.81;5023669;28;124308;-61
2021/06/25 10:55:03;;;;;;;13.23;9.20;;;;;;;24.96;45.65;101675.13;5025446;28;121242;-61
2021/06/25 10:57:31;;;;;;;16.70;9.80;;;;;;;25.06;45.24;101658.84;5024857;28;119476;-61
2021/06/25 10:59:59;;;;;;;15.57;9.80;;;;;;;25.12;44.87;101657.41;5023385;28;124061;-61
2021/06/25 11:02:40;;;;;;;12.90;9.30;;;;;;;25.14;44.66;101655.41;5025297;28;124383;-61
2021/06/25 11:05:27;;;;;;;13.80;8.70;;;;;;;25.16;44.31;101664.25;5024114;27;119975;-61
2021/06/25 11:07:55;;;;;;;14.95;8.73;;;;;;;25.22;43.99;101658.22;5028224;28;118808;-61
2021/06/25 11:10:25;;;;;;;15.02;8.57;;;;;;;25.28;44.06;101668.56;5023939;27;124220;-61
2021/06/25 11:13:11;;;;;;;14.43;9.18;;;;;;;25.34;43.90;101667.13;5017336;28;123759;-61
2021/06/25 11:15:41;;;;;;;13.38;8.75;;;;;;;25.38;43.35;101666.66;5019252;28;119528;-61
2021/06/25 11:18:25;;;;;;;14.77;8.43;;;;;;;25.44;44.07;101663.34;5013271;28;119070;-61
2021/06/25 11:20:57;;;;;;;12.63;8.05;;;;;;;25.58;43.49;101661.19;5026946;28;123641;-61
2021/06/25 11:23:39;;;;;;;12.15;8.05;;;;;;;25.73;43.62;101667.88;5018626;27;123952;-61